Terminal Aerodrome Forecast
Issued by NWS

Home | Current Version | Previous Version | Graphics & Text | Print | Product List | Glossary On
Versions: 1 2 3 4 5 6 7 8 9 10 11 12 13 14 15 16 17 18 19 20 21 22 23 24 25
000
FTUS41 KCLE 170500
TAFFDY
TAF
KFDY 170534Z 1706/1806 23010KT P6SM SCT020 OVC035
     FM170700 22008KT 4SM BR SCT019 OVC025
      TEMPO 1707/1711 BKN019 OVC025
     FM171100 20010KT P6SM BKN019 OVC025
      TEMPO 1712/1715 SCT019 BKN025
     FM171500 23016G25KT P6SM SCT020 SCT050
     FM180000 27012KT P6SM VCSH OVC025=

USA.gov is the U.S. government's official web portal to all federal, state and local government web resources and services.